createdAt,value
2018-07-17T00:00:16.205Z,20.76
2018-07-17T00:01:16.184Z,20.78
2018-07-17T00:02:16.364Z,20.71
2018-07-17T00:03:16.355Z,20.71
2018-07-17T00:04:16.320Z,20.82
2018-07-17T00:05:16.298Z,20.72
2018-07-17T00:06:16.073Z,20.83
2018-07-17T00:07:16.052Z,20.96
2018-07-17T00:08:16.027Z,20.94
2018-07-17T00:09:16.006Z,20.88
2018-07-17T00:10:15.981Z,21.01
2018-07-17T00:11:15.960Z,21.00
2018-07-17T00:12:15.935Z,20.98
2018-07-17T00:13:15.913Z,21.01
2018-07-17T00:14:15.893Z,20.90
2018-07-17T00:15:15.870Z,20.91
2018-07-17T00:16:16.049Z,20.85
2018-07-17T00:17:15.825Z,20.69
2018-07-17T00:18:15.801Z,20.78
2018-07-17T00:19:15.779Z,20.75
2018-07-17T00:20:15.755Z,20.76
2018-07-17T00:21:15.732Z,20.76
2018-07-17T00:22:15.712Z,20.75
2018-07-17T00:23:15.691Z,20.71
2018-07-17T00:24:15.667Z,20.69
2018-07-17T00:25:15.641Z,20.71
2018-07-17T00:26:15.620Z,20.73
2018-07-17T00:27:16.408Z,20.68
2018-07-17T00:30:15.733Z,20.61
2018-07-17T00:31:15.509Z,20.64
2018-07-17T00:32:15.484Z,20.51
2018-07-17T00:36:22.106Z,20.35
2018-07-17T00:37:21.875Z,20.37
2018-07-17T00:38:22.051Z,20.40
2018-07-17T00:39:21.829Z,20.40
2018-07-17T00:40:21.806Z,20.41
2018-07-17T00:41:21.782Z,20.35
2018-07-17T00:42:24.590Z,20.38
2018-07-17T00:43:21.736Z,20.30
2018-07-17T00:44:21.715Z,20.30
2018-07-17T00:45:21.691Z,20.33
2018-07-17T00:46:21.673Z,20.31
2018-07-17T00:47:21.656Z,20.25
2018-07-17T00:48:21.775Z,20.27
2018-07-17T00:49:21.605Z,20.30
2018-07-17T00:50:21.579Z,20.35
2018-07-17T00:51:21.556Z,20.30
2018-07-17T00:52:21.535Z,20.27
2018-07-17T00:53:21.510Z,20.38
2018-07-17T00:54:21.488Z,20.51
2018-07-17T00:55:21.463Z,20.53
2018-07-17T00:56:21.439Z,20.50
2018-07-17T00:57:21.415Z,20.50
2018-07-17T00:58:21.394Z,20.46
2018-07-17T00:59:21.373Z,20.37
2018-07-17T01:00:21.501Z,20.38
2018-07-17T01:01:21.329Z,20.26
2018-07-17T01:02:21.305Z,20.35
2018-07-17T01:03:21.280Z,20.22
2018-07-17T01:04:21.257Z,20.23
2018-07-17T01:05:21.236Z,20.22
2018-07-17T01:06:21.213Z,20.16
2018-07-17T01:07:21.188Z,20.17
2018-07-17T01:08:21.369Z,20.10
2018-07-17T01:09:23.967Z,20.00
2018-07-17T01:10:21.322Z,20.08
2018-07-17T01:11:21.302Z,20.07
2018-07-17T01:12:21.280Z,20.10
2018-07-17T01:13:21.053Z,20.20
2018-07-17T01:14:21.031Z,20.19
2018-07-17T01:15:21.005Z,20.16
2018-07-17T01:16:20.985Z,20.12
2018-07-17T01:17:20.960Z,20.10
2018-07-17T01:18:20.938Z,20.02
2018-07-17T01:19:20.917Z,20.13
2018-07-17T01:20:20.895Z,20.08
2018-07-17T01:21:20.872Z,20.07
2018-07-17T01:22:20.848Z,20.07
2018-07-17T01:23:21.027Z,20.10
2018-07-17T01:24:21.008Z,20.08
2018-07-17T01:25:20.778Z,20.08
2018-07-17T01:26:20.755Z,20.19
2018-07-17T01:27:20.731Z,20.17
2018-07-17T01:28:20.708Z,20.19
2018-07-17T01:29:20.686Z,20.16
2018-07-17T01:30:20.662Z,20.12
2018-07-17T01:31:20.640Z,20.17
2018-07-17T01:32:20.619Z,20.20
2018-07-17T01:33:20.797Z,20.16
2018-07-17T01:34:20.574Z,20.13
2018-07-17T01:35:20.548Z,20.12
2018-07-17T01:36:20.524Z,20.19
2018-07-17T01:37:20.703Z,20.16
2018-07-17T01:38:20.758Z,20.19
2018-07-17T01:39:20.457Z,20.20
2018-07-17T01:40:20.434Z,20.16
2018-07-17T01:41:20.410Z,19.95
2018-07-17T01:42:20.392Z,19.85
2018-07-17T01:43:20.363Z,19.75
2018-07-17T01:44:20.340Z,19.65
2018-07-17T01:45:20.317Z,19.55
2018-07-17T01:46:20.302Z,19.47
2018-07-17T01:47:20.482Z,19.43
2018-07-17T01:48:20.254Z,19.34
2018-07-17T01:49:20.225Z,19.38
2018-07-17T01:50:20.205Z,19.34
2018-07-17T01:51:20.179Z,19.25
2018-07-17T01:52:20.158Z,19.32
2018-07-17T01:53:20.135Z,19.46
2018-07-17T01:54:20.116Z,19.50
2018-07-17T01:55:20.087Z,19.50
2018-07-17T01:56:20.064Z,19.46
2018-07-17T01:57:20.042Z,19.47
2018-07-17T01:58:20.022Z,19.40
2018-07-17T01:59:19.995Z,19.49
2018-07-17T02:00:19.974Z,19.49
2018-07-17T02:01:19.949Z,19.47
2018-07-17T02:02:19.926Z,19.62
2018-07-17T02:03:19.902Z,19.58
2018-07-17T02:04:19.878Z,19.58
2018-07-17T02:05:19.856Z,19.65
2018-07-17T02:06:19.834Z,19.67
2018-07-17T02:07:19.812Z,19.76
2018-07-17T02:08:19.788Z,19.85
2018-07-17T02:09:19.764Z,19.79
2018-07-17T02:10:19.741Z,19.78
2018-07-17T02:11:19.718Z,19.79
2018-07-17T02:12:19.697Z,19.71
2018-07-17T02:13:19.670Z,19.64
2018-07-17T02:14:19.649Z,19.61
2018-07-17T02:15:19.629Z,19.68
2018-07-17T02:16:19.601Z,19.64
2018-07-17T02:17:19.577Z,19.62
2018-07-17T02:18:19.556Z,19.61
2018-07-17T02:19:19.533Z,19.67
2018-07-17T02:20:19.513Z,19.58
2018-07-17T02:21:19.485Z,19.71
2018-07-17T02:22:19.467Z,19.60
2018-07-17T02:23:20.489Z,19.57
2018-07-17T02:24:19.415Z,19.58
2018-07-17T02:25:19.398Z,19.61
2018-07-17T02:26:19.369Z,19.57
2018-07-17T02:27:19.348Z,19.58
2018-07-17T02:28:19.368Z,19.60
2018-07-17T02:29:19.298Z,19.62
2018-07-17T02:30:19.275Z,19.62
2018-07-17T02:31:19.253Z,19.60
2018-07-17T02:32:19.232Z,19.60
2018-07-17T02:33:19.208Z,19.55
2018-07-17T02:34:19.184Z,19.65
2018-07-17T02:35:19.161Z,19.64
2018-07-17T02:36:19.138Z,19.57
2018-07-17T02:37:19.112Z,19.57
2018-07-17T02:38:19.089Z,19.61
2018-07-17T02:39:19.068Z,19.50
2018-07-17T02:40:19.054Z,19.53
2018-07-17T02:41:19.027Z,19.49
2018-07-17T02:42:19.041Z,19.46
2018-07-17T02:43:18.980Z,19.49
2018-07-17T02:44:18.952Z,19.60
2018-07-17T02:45:18.935Z,19.58
2018-07-17T02:46:18.904Z,19.58
2018-07-17T02:47:18.887Z,19.55
2018-07-17T02:48:18.859Z,19.49
2018-07-17T02:49:18.833Z,19.46
2018-07-17T02:50:18.810Z,19.46
2018-07-17T02:51:18.791Z,19.47
2018-07-17T02:52:18.766Z,19.42
2018-07-17T02:53:18.743Z,19.32
2018-07-17T02:54:18.718Z,19.35
2018-07-17T02:55:18.694Z,19.40
2018-07-17T02:56:18.672Z,19.21
2018-07-17T02:57:18.646Z,19.24
2018-07-17T02:58:18.633Z,19.15
2018-07-17T02:59:18.601Z,19.02
2018-07-17T03:00:18.578Z,19.02
2018-07-17T03:01:18.554Z,19.10
2018-07-17T03:02:18.530Z,19.02
2018-07-17T03:03:18.510Z,19.01
2018-07-17T03:04:18.487Z,19.02
2018-07-17T03:05:18.465Z,19.02
2018-07-17T03:06:18.439Z,19.23
2018-07-17T03:07:18.414Z,19.20
2018-07-17T03:08:18.391Z,19.16
2018-07-17T03:09:18.367Z,19.20
2018-07-17T03:10:18.546Z,19.16
2018-07-17T03:11:18.324Z,19.20
2018-07-17T03:12:18.298Z,19.16
2018-07-17T03:13:18.279Z,19.13
2018-07-17T03:14:18.255Z,19.15
2018-07-17T03:15:18.478Z,19.17
2018-07-17T03:16:20.827Z,19.12
2018-07-17T03:17:18.182Z,19.16
2018-07-17T03:18:18.158Z,19.20
2018-07-17T03:19:18.335Z,19.23
2018-07-17T03:20:18.311Z,19.12
2018-07-17T03:21:18.287Z,19.07
2018-07-17T03:22:18.267Z,19.13
2018-07-17T03:23:18.246Z,19.09
2018-07-17T03:24:18.018Z,19.10
2018-07-17T03:25:17.994Z,19.07
2018-07-17T03:26:17.969Z,19.07
2018-07-17T03:27:17.946Z,18.94
2018-07-17T03:28:17.921Z,19.02
2018-07-17T03:29:17.897Z,18.93
2018-07-17T03:30:17.875Z,18.89
2018-07-17T03:31:17.851Z,18.90
2018-07-17T03:32:17.836Z,18.87
2018-07-17T03:33:17.805Z,18.93
2018-07-17T03:34:17.780Z,18.90
2018-07-17T03:35:17.759Z,18.87
2018-07-17T03:36:17.754Z,18.93
2018-07-17T03:37:17.711Z,18.82
2018-07-17T03:38:17.693Z,18.82
2018-07-17T03:39:17.663Z,18.87
2018-07-17T03:40:17.789Z,18.89
2018-07-17T03:41:17.615Z,18.90
2018-07-17T03:42:17.591Z,18.86
2018-07-17T03:43:17.573Z,18.91
2018-07-17T03:44:17.546Z,19.02
2018-07-17T03:45:17.570Z,19.02
2018-07-17T03:46:17.500Z,19.10
2018-07-17T03:47:17.475Z,19.09
2018-07-17T03:48:17.451Z,19.10
2018-07-17T03:49:17.427Z,19.15
2018-07-17T03:50:17.404Z,19.16
2018-07-17T03:51:17.391Z,19.16
2018-07-17T03:52:17.359Z,19.02
2018-07-17T03:53:17.336Z,18.96
2018-07-17T03:54:17.313Z,18.90
2018-07-17T03:55:17.288Z,19.07
2018-07-17T03:56:17.264Z,19.24
2018-07-17T03:57:17.240Z,19.32
2018-07-17T03:58:17.217Z,19.46
2018-07-17T03:59:17.198Z,19.60
2018-07-17T04:00:17.173Z,19.72
2018-07-17T04:01:17.149Z,19.86
2018-07-17T04:02:17.126Z,19.98
2018-07-17T04:03:17.103Z,20.15
2018-07-17T04:04:17.108Z,20.31
2018-07-17T04:05:17.056Z,20.35
2018-07-17T04:06:17.034Z,20.50
2018-07-17T04:07:17.009Z,20.68
2018-07-17T04:08:16.987Z,20.66
2018-07-17T04:09:16.964Z,20.72
2018-07-17T04:10:16.940Z,20.76
2018-07-17T04:11:16.921Z,20.87
2018-07-17T04:12:16.898Z,20.82
2018-07-17T04:13:16.909Z,20.96
2018-07-17T04:14:16.855Z,21.06
2018-07-17T04:15:16.829Z,21.24
2018-07-17T04:16:16.807Z,21.27
2018-07-17T04:17:16.987Z,21.37
2018-07-17T04:18:16.762Z,21.49
2018-07-17T04:19:16.741Z,21.49
2018-07-17T04:20:16.720Z,21.48
2018-07-17T04:21:16.898Z,21.48
2018-07-17T04:22:16.675Z,21.52
2018-07-17T04:23:16.654Z,21.71
2018-07-17T04:24:16.836Z,21.86
2018-07-17T04:25:16.613Z,22.02
2018-07-17T04:26:16.645Z,22.01
2018-07-17T04:27:16.770Z,22.23
2018-07-17T04:28:16.746Z,22.27
2018-07-17T04:29:16.729Z,22.27
2018-07-17T04:30:16.502Z,22.36
2018-07-17T04:31:16.483Z,22.48
2018-07-17T04:32:16.965Z,22.57
2018-07-17T04:33:16.440Z,22.57
2018-07-17T04:34:16.622Z,22.38
2018-07-17T04:35:16.601Z,22.24
2018-07-17T04:36:16.581Z,22.21
2018-07-17T04:37:16.558Z,22.26
2018-07-17T04:38:16.369Z,22.30
2018-07-17T04:39:16.514Z,22.41
2018-07-17T04:40:58.650Z,22.52
2018-07-17T04:41:58.628Z,22.74
2018-07-17T04:42:58.408Z,22.74
2018-07-17T04:44:01.824Z,22.94
2018-07-17T04:44:59.382Z,23.01
2018-07-17T04:45:58.548Z,23.16
2018-07-17T04:46:58.326Z,23.26
2018-07-17T04:47:58.506Z,23.49
2018-07-17T04:48:59.699Z,23.41
2018-07-17T04:49:58.465Z,23.31
2018-07-17T04:50:58.448Z,23.32
2018-07-17T04:51:58.426Z,23.26
2018-07-17T04:52:58.207Z,23.15
2018-07-17T04:53:58.184Z,23.22
2018-07-17T04:54:58.168Z,23.32
2018-07-17T04:55:58.144Z,23.35
2018-07-17T04:56:58.327Z,23.44
2018-07-17T04:57:58.312Z,23.74
2018-07-17T04:58:58.290Z,24.09
2018-07-17T04:59:58.064Z,24.44
2018-07-17T05:00:58.045Z,24.97
2018-07-17T05:01:58.106Z,25.39
2018-07-17T05:02:58.005Z,25.76
2018-07-17T05:03:57.986Z,25.91
2018-07-17T05:04:57.968Z,26.04
2018-07-17T05:05:57.948Z,25.89
2018-07-17T05:06:57.929Z,25.91
2018-07-17T05:33:57.835Z,23.72
2018-07-17T05:34:57.613Z,24.08
2018-07-17T05:35:57.595Z,24.30
2018-07-17T05:42:39.836Z,24.98
2018-07-17T05:43:39.616Z,24.94
2018-07-17T05:44:39.634Z,25.04
2018-07-17T05:45:39.580Z,25.20
2018-07-17T05:46:39.565Z,25.79
2018-07-17T05:47:39.553Z,26.11
2018-07-17T05:48:39.525Z,26.19
2018-07-17T05:49:39.707Z,26.11
2018-07-17T05:50:39.487Z,26.13
2018-07-17T05:51:39.470Z,25.78
2018-07-17T05:52:39.652Z,25.86
2018-07-17T05:53:39.436Z,25.78
2018-07-17T05:54:39.418Z,25.59
2018-07-17T05:55:39.398Z,26.12
2018-07-17T05:56:39.381Z,26.21
2018-07-17T05:57:39.364Z,26.12
2018-07-17T05:58:39.549Z,26.16
2018-07-17T05:59:39.331Z,26.23
2018-07-17T06:00:39.311Z,26.24
2018-07-17T06:01:39.292Z,26.17
2018-07-17T06:02:39.275Z,25.93
2018-07-17T06:03:39.459Z,26.13
2018-07-17T06:04:39.243Z,25.57
2018-07-17T06:05:39.226Z,25.63
2018-07-17T06:06:39.209Z,26.23
2018-07-17T06:07:39.191Z,26.73
2018-07-17T06:08:39.380Z,27.02
2018-07-17T06:09:39.163Z,27.55
2018-07-17T06:10:39.139Z,27.21
2018-07-17T06:11:39.323Z,26.78
2018-07-17T06:12:39.308Z,27.25
2018-07-17T06:13:39.291Z,27.27
2018-07-17T06:14:39.426Z,27.31
2018-07-17T06:15:42.487Z,27.30
2018-07-17T06:16:39.272Z,27.31
2018-07-17T06:17:39.027Z,27.33
2018-07-17T06:18:39.212Z,27.39
2018-07-17T06:19:39.198Z,27.11
2018-07-17T06:20:38.979Z,26.88
2018-07-17T06:21:38.959Z,26.60
2018-07-17T06:22:38.949Z,26.59
2018-07-17T06:23:38.930Z,26.94
2018-07-17T06:24:39.114Z,27.45
2018-07-17T06:25:39.102Z,27.81
2018-07-17T06:26:38.882Z,28.17
2018-07-17T06:27:39.134Z,27.76
2018-07-17T06:28:39.055Z,28.21
2018-07-17T06:29:39.039Z,27.98
2018-07-17T06:30:38.821Z,28.46
2018-07-17T06:31:38.805Z,29.14
2018-07-17T06:32:38.991Z,29.52
2018-07-17T06:33:38.772Z,29.39
2018-07-17T06:34:38.961Z,29.58
2018-07-17T06:35:41.568Z,29.29
2018-07-17T06:36:38.727Z,29.37
2018-07-17T06:37:38.916Z,29.52
2018-07-17T06:38:38.699Z,29.60
2018-07-17T06:39:38.892Z,29.25
2018-07-17T06:40:38.870Z,29.03
2018-07-17T06:41:38.858Z,29.37
2018-07-17T06:42:38.838Z,29.71
2018-07-17T06:43:38.634Z,30.19
2018-07-17T06:44:38.693Z,30.21
2018-07-17T06:45:38.595Z,30.13
2018-07-17T06:46:38.579Z,30.15
2018-07-17T06:47:38.569Z,30.29
2018-07-17T06:48:38.753Z,30.54
2018-07-17T06:49:38.736Z,30.48
2018-07-17T06:50:38.681Z,30.67
2018-07-17T06:51:38.506Z,30.88
2018-07-17T06:52:38.694Z,30.81
2018-07-17T06:53:38.682Z,30.68
2018-07-17T06:54:38.669Z,30.38
2018-07-17T06:56:20.812Z,29.99
2018-07-17T06:57:20.892Z,29.52
2018-07-17T06:58:20.583Z,29.05
2018-07-17T06:59:20.772Z,29.41
2018-07-17T07:00:20.557Z,30.03
2018-07-17T07:01:20.552Z,30.46
2018-07-17T07:02:20.527Z,30.97
2018-07-17T07:03:20.511Z,31.47
2018-07-17T07:04:20.699Z,31.97
2018-07-17T07:05:20.559Z,31.95
2018-07-17T07:06:20.671Z,31.47
2018-07-17T07:07:23.094Z,30.54
2018-07-17T07:08:20.705Z,29.58
2018-07-17T07:09:20.431Z,29.20
2018-07-17T07:10:21.835Z,28.87
2018-07-17T07:11:20.687Z,29.14
2018-07-17T07:12:20.389Z,29.66
2018-07-17T07:13:20.375Z,29.78
2018-07-17T07:14:20.360Z,29.89
2018-07-17T07:15:20.349Z,29.99
2018-07-17T07:16:20.334Z,30.16
2018-07-17T07:17:20.318Z,30.45
2018-07-17T07:18:20.311Z,30.66
2018-07-17T07:19:20.294Z,30.82
2018-07-17T07:20:20.284Z,30.94
2018-07-17T07:21:23.097Z,30.97
2018-07-17T07:22:20.254Z,31.30
2018-07-17T07:23:20.260Z,31.30
2018-07-17T07:24:20.427Z,31.78
2018-07-17T07:25:20.416Z,31.60
2018-07-17T07:26:20.201Z,31.37
2018-07-17T07:27:20.397Z,31.23
2018-07-17T07:29:02.535Z,31.60
2018-07-17T07:30:02.523Z,31.71
2018-07-17T07:31:02.567Z,31.56
2018-07-17T07:32:03.104Z,31.62
2018-07-17T07:33:02.486Z,31.46
2018-07-17T07:34:02.267Z,31.25
2018-07-17T07:35:02.290Z,31.10
2018-07-17T07:36:02.444Z,31.10
2018-07-17T07:37:02.435Z,31.34
2018-07-17T07:38:02.419Z,31.65
2018-07-17T07:39:02.404Z,32.12
2018-07-17T07:40:02.197Z,32.19
2018-07-17T07:41:02.178Z,31.68
2018-07-17T07:42:02.368Z,31.46
2018-07-17T07:43:02.355Z,30.59
2018-07-17T07:44:02.342Z,30.94
2018-07-17T07:45:02.132Z,31.10
2018-07-17T07:46:02.318Z,30.78
2018-07-17T07:47:02.309Z,30.97
2018-07-17T07:48:02.089Z,31.15
2018-07-17T07:49:02.281Z,31.42
2018-07-17T07:50:02.269Z,32.02
2018-07-17T07:51:02.254Z,32.32
2018-07-17T07:52:02.047Z,32.21
2018-07-17T07:53:02.232Z,31.91
2018-07-17T07:54:02.218Z,32.02
2018-07-17T07:55:02.211Z,31.65
2018-07-17T07:56:02.244Z,30.64
2018-07-17T07:57:01.985Z,31.12
2018-07-17T07:58:04.790Z,31.07
2018-07-17T07:59:02.158Z,31.88
2018-07-17T08:00:05.984Z,32.19
2018-07-17T08:01:44.341Z,31.72
2018-07-17T08:02:44.284Z,31.62
2018-07-17T08:03:44.417Z,31.64
2018-07-17T08:04:44.265Z,32.29
2018-07-17T08:05:48.086Z,32.40
2018-07-17T08:06:44.239Z,32.78
2018-07-17T08:07:44.230Z,33.11
2018-07-17T08:08:44.213Z,32.58
2018-07-17T08:09:44.208Z,32.22
2018-07-17T08:10:43.988Z,32.53
2018-07-17T08:11:43.984Z,32.62
2018-07-17T08:12:43.973Z,32.59
2018-07-17T08:13:43.958Z,32.47
2018-07-17T08:14:44.148Z,32.10
2018-07-17T08:15:43.943Z,31.75
2018-07-17T08:18:08.447Z,31.40
2018-07-17T08:19:08.234Z,31.91
2018-07-17T08:22:15.317Z,31.98
2018-07-17T08:23:14.900Z,32.31
2018-07-17T08:24:14.913Z,31.53
2018-07-17T08:26:39.207Z,31.56
2018-07-17T08:29:04.324Z,31.50
2018-07-17T08:30:04.305Z,31.64
2018-07-17T08:31:03.505Z,31.90
2018-07-17T08:34:09.967Z,32.72
2018-07-17T08:38:44.201Z,31.69
2018-07-17T08:39:40.755Z,31.47
2018-07-17T08:40:41.351Z,31.78
2018-07-17T08:41:40.735Z,32.32
2018-07-17T08:42:40.724Z,32.68
2018-07-17T08:43:40.759Z,32.85
2018-07-17T08:44:40.710Z,32.98
2018-07-17T08:45:40.696Z,32.81
2018-07-17T08:47:22.841Z,32.91
2018-07-17T08:49:05.034Z,33.11
2018-07-17T08:50:04.779Z,32.80
2018-07-17T08:51:04.970Z,32.34
2018-07-17T08:52:04.963Z,32.54
2018-07-17T08:53:04.754Z,32.63
2018-07-17T08:54:05.011Z,32.77
2018-07-17T08:55:04.931Z,32.54
2018-07-17T08:56:04.921Z,31.95
2018-07-17T08:57:04.907Z,32.69
2018-07-17T08:58:47.058Z,32.53
2018-07-17T09:00:29.273Z,33.15
2018-07-17T09:01:29.607Z,33.60
2018-07-17T09:03:11.352Z,33.60
2018-07-17T09:04:11.341Z,32.62
2018-07-17T09:05:11.330Z,32.40
2018-07-17T09:06:11.330Z,30.82
2018-07-17T09:07:11.111Z,30.70
2018-07-17T09:08:11.101Z,30.56
2018-07-17T09:09:11.092Z,30.08
2018-07-17T09:10:11.080Z,29.32
2018-07-17T09:11:11.071Z,29.12
2018-07-17T09:12:11.060Z,29.39
2018-07-17T09:13:11.184Z,28.97
2018-07-17T09:14:11.047Z,29.41
2018-07-17T09:15:11.032Z,29.78
2018-07-17T09:16:11.020Z,30.78
2018-07-17T09:17:11.011Z,30.91
2018-07-17T09:18:11.001Z,30.51
2018-07-17T09:19:11.004Z,31.13
2018-07-17T09:20:10.980Z,31.32
2018-07-17T09:21:10.970Z,32.19
2018-07-17T09:22:10.960Z,32.24
2018-07-17T09:23:10.948Z,32.53
2018-07-17T09:24:10.940Z,32.50
2018-07-17T09:25:10.933Z,32.91
2018-07-17T09:26:10.920Z,31.98
2018-07-17T09:27:10.917Z,31.76
2018-07-17T09:28:10.939Z,31.28
2018-07-17T09:29:11.096Z,31.32
2018-07-17T09:30:11.084Z,31.27
2018-07-17T09:31:10.869Z,31.12
2018-07-17T09:32:11.062Z,31.05
2018-07-17T09:33:53.620Z,31.52
2018-07-17T09:34:53.206Z,31.62
2018-07-17T09:35:52.994Z,31.00
2018-07-17T09:36:52.990Z,31.07
2018-07-17T09:37:52.981Z,30.94
2018-07-17T09:38:53.029Z,30.03
2018-07-17T09:39:52.958Z,29.84
2018-07-17T09:40:52.947Z,30.72
2018-07-17T09:41:52.938Z,31.40
2018-07-17T09:42:52.931Z,31.71
2018-07-17T09:43:53.120Z,30.72
2018-07-17T09:44:52.915Z,31.05
2018-07-17T09:45:53.104Z,30.94
2018-07-17T09:46:52.891Z,31.54
2018-07-17T09:47:52.881Z,31.91
2018-07-17T09:48:52.872Z,30.98
2018-07-17T09:49:53.065Z,30.78
2018-07-17T09:50:53.055Z,31.74
2018-07-17T09:51:54.259Z,32.19
2018-07-17T09:55:42.701Z,31.45
2018-07-17T09:56:44.096Z,31.71
2018-07-17T09:57:41.668Z,32.21
2018-07-17T09:58:41.660Z,31.10
2018-07-17T09:59:41.659Z,30.83
2018-07-17T10:00:41.655Z,30.16
2018-07-17T10:02:23.792Z,31.09
2018-07-17T10:03:23.783Z,31.52
2018-07-17T10:04:23.780Z,31.91
2018-07-17T10:05:23.766Z,32.03
2018-07-17T10:06:23.832Z,32.65
2018-07-17T10:07:23.745Z,33.26
2018-07-17T10:08:23.538Z,32.95
2018-07-17T10:09:23.540Z,32.77
2018-07-17T10:10:23.717Z,32.53
2018-07-17T10:11:23.506Z,32.99
2018-07-17T10:12:23.497Z,32.50
2018-07-17T10:13:23.491Z,32.27
2018-07-17T10:14:23.548Z,30.88
2018-07-17T10:15:23.476Z,30.98
2018-07-17T10:16:23.473Z,30.94
2018-07-17T10:17:23.658Z,30.11
2018-07-17T10:19:05.812Z,31.12
2018-07-17T10:20:05.891Z,31.95
2018-07-17T10:21:05.793Z,31.74
2018-07-17T10:22:05.588Z,32.05
2018-07-17T10:23:05.596Z,31.15
2018-07-17T10:24:05.567Z,31.78
2018-07-17T10:25:05.560Z,32.06
2018-07-17T10:26:05.551Z,32.17
2018-07-17T10:27:05.543Z,31.10
2018-07-17T10:28:05.532Z,31.05
2018-07-17T10:29:05.520Z,31.49
2018-07-17T10:30:05.514Z,30.90
2018-07-17T10:31:05.505Z,30.32
2018-07-17T10:32:05.538Z,30.29
2018-07-17T10:33:05.486Z,30.64
2018-07-17T10:34:05.477Z,30.53
2018-07-17T10:35:05.467Z,30.94
2018-07-17T10:36:05.465Z,30.85
2018-07-17T10:37:05.653Z,31.12
2018-07-17T10:38:05.436Z,32.28
2018-07-17T10:39:05.429Z,31.74
2018-07-17T10:40:05.416Z,31.76
2018-07-17T10:41:05.406Z,31.94
2018-07-17T10:42:05.454Z,31.87
2018-07-17T10:43:05.393Z,32.39
2018-07-17T10:44:05.382Z,32.25
2018-07-17T10:45:05.372Z,31.87
2018-07-17T10:46:05.361Z,32.39
2018-07-17T10:47:05.351Z,32.93
2018-07-17T10:48:05.344Z,33.65
2018-07-17T10:49:05.343Z,33.53
2018-07-17T10:50:05.528Z,34.27
2018-07-17T10:51:05.524Z,33.44
2018-07-17T10:52:08.744Z,33.11
2018-07-17T10:53:05.518Z,32.73
2018-07-17T10:54:05.549Z,32.84
2018-07-17T10:55:05.491Z,32.49
2018-07-17T10:56:05.481Z,32.28
2018-07-17T10:57:05.277Z,32.07
2018-07-17T10:58:05.263Z,31.20
2018-07-17T10:59:05.259Z,30.51
2018-07-17T11:00:05.256Z,30.22
2018-07-17T11:01:05.334Z,30.30
2018-07-17T11:02:05.236Z,30.19
2018-07-17T11:03:05.226Z,29.91
2018-07-17T11:04:05.216Z,30.23
2018-07-17T11:05:05.210Z,31.03
2018-07-17T11:06:05.205Z,31.13
2018-07-17T11:07:05.194Z,30.93
2018-07-17T11:08:05.186Z,30.88
2018-07-17T11:09:05.178Z,31.10
2018-07-17T11:10:05.167Z,30.90
2018-07-17T11:11:05.159Z,30.91
2018-07-17T11:12:05.151Z,31.18
2018-07-17T11:13:05.147Z,30.66
2018-07-17T11:14:05.135Z,30.56
2018-07-17T11:15:05.130Z,30.83
2018-07-17T11:16:05.118Z,30.97
2018-07-17T11:17:05.109Z,30.93
2018-07-17T11:18:05.101Z,31.16
2018-07-17T11:19:05.092Z,31.15
2018-07-17T11:20:05.083Z,30.96
2018-07-17T11:21:05.079Z,30.96
2018-07-17T11:22:05.071Z,30.70
2018-07-17T11:23:05.063Z,30.28
2018-07-17T11:24:05.052Z,30.10
2018-07-17T11:25:05.044Z,29.86
2018-07-17T11:26:05.035Z,30.06
2018-07-17T11:27:05.025Z,30.30
2018-07-17T11:28:05.014Z,30.40
2018-07-17T11:29:05.005Z,30.46
2018-07-17T11:30:04.998Z,30.97
2018-07-17T11:31:04.992Z,31.10
2018-07-17T11:32:05.045Z,31.09
2018-07-17T11:33:04.968Z,30.78
2018-07-17T11:34:05.162Z,30.64
2018-07-17T11:35:04.948Z,31.15
2018-07-17T11:36:04.943Z,30.60
2018-07-17T11:37:04.933Z,30.90
2018-07-17T11:38:04.916Z,30.67
2018-07-17T11:39:04.908Z,30.61
2018-07-17T11:40:04.895Z,30.93
2018-07-17T11:41:04.886Z,30.96
2018-07-17T11:42:04.881Z,31.13
2018-07-17T11:43:04.869Z,30.88
2018-07-17T11:44:04.873Z,30.18
2018-07-17T11:45:04.847Z,29.58
2018-07-17T11:46:04.836Z,30.18
2018-07-17T11:47:04.828Z,30.49
2018-07-17T11:48:04.819Z,30.79
2018-07-17T11:49:04.806Z,30.53
2018-07-17T11:50:04.799Z,30.28
2018-07-17T11:51:04.793Z,30.64
2018-07-17T11:52:04.794Z,30.29
2018-07-17T11:53:04.769Z,30.46
2018-07-17T11:54:04.761Z,30.61
2018-07-17T11:55:04.752Z,30.54
2018-07-17T11:56:04.744Z,30.51
2018-07-17T11:57:04.738Z,30.98
2018-07-17T11:58:04.723Z,31.10
2018-07-17T11:59:04.856Z,31.30
2018-07-17T12:00:04.705Z,30.97
2018-07-17T12:01:04.699Z,30.61
2018-07-17T12:02:04.691Z,30.67
2018-07-17T12:03:04.689Z,30.66
2018-07-17T12:04:04.673Z,30.97
2018-07-17T12:05:04.667Z,30.86
2018-07-17T12:06:04.661Z,31.52
2018-07-17T12:07:04.646Z,31.05
2018-07-17T12:08:04.638Z,31.31
2018-07-17T12:09:04.631Z,31.00
2018-07-17T12:10:04.635Z,31.13
2018-07-17T12:11:04.816Z,31.41
2018-07-17T12:12:04.808Z,31.57
2018-07-17T12:13:05.709Z,31.60
2018-07-17T12:14:04.793Z,31.47
2018-07-17T12:15:04.787Z,31.59
2018-07-17T12:16:04.582Z,32.03
2018-07-17T12:17:04.566Z,31.97
2018-07-17T12:18:04.761Z,31.95
2018-07-17T12:19:04.754Z,32.13
2018-07-17T12:20:04.828Z,32.32
2018-07-17T12:21:04.535Z,32.47
2018-07-17T12:22:04.533Z,32.34
2018-07-17T12:23:04.522Z,31.75
2018-07-17T12:24:04.527Z,31.46
2018-07-17T12:25:04.505Z,31.37
2018-07-17T12:26:04.503Z,31.32
2018-07-17T12:27:04.492Z,31.12
2018-07-17T12:28:04.540Z,31.03
2018-07-17T12:29:04.475Z,30.54
2018-07-17T12:30:05.270Z,30.32
2018-07-17T12:31:04.459Z,30.25
2018-07-17T12:32:04.453Z,30.38
2018-07-17T12:33:04.449Z,30.21
2018-07-17T12:34:04.442Z,30.26
2018-07-17T12:35:04.438Z,30.44
2018-07-17T12:36:04.425Z,30.75
2018-07-17T12:37:04.461Z,30.68
2018-07-17T12:38:04.407Z,30.56
2018-07-17T12:39:04.398Z,30.63
2018-07-17T12:40:04.389Z,30.45
2018-07-17T12:41:04.381Z,30.25
2018-07-17T12:42:04.381Z,30.34
2018-07-17T12:43:04.371Z,30.53
2018-07-17T12:44:04.356Z,30.64
2018-07-17T12:45:04.349Z,31.01
2018-07-17T12:46:04.344Z,31.23
2018-07-17T12:47:04.335Z,30.83
2018-07-17T12:48:04.331Z,30.76
2018-07-17T12:49:04.318Z,30.72
2018-07-17T12:50:04.363Z,30.30
2018-07-17T12:51:04.299Z,30.75
2018-07-17T12:52:04.290Z,30.54
2018-07-17T12:53:04.284Z,30.19
2018-07-17T12:54:04.276Z,30.15
2018-07-17T12:55:04.269Z,30.03
2018-07-17T12:56:04.261Z,30.30
2018-07-17T12:57:04.252Z,30.42
2018-07-17T12:58:04.240Z,30.67
2018-07-17T12:59:04.237Z,30.94
2018-07-17T13:00:04.224Z,31.34
2018-07-17T13:01:04.216Z,31.27
2018-07-17T13:02:04.204Z,30.81
2018-07-17T13:03:04.197Z,30.56
2018-07-17T13:04:04.184Z,30.45
2018-07-17T13:05:04.183Z,30.29
2018-07-17T13:06:04.169Z,30.28
2018-07-17T13:07:04.165Z,30.30
2018-07-17T13:08:04.151Z,30.45
2018-07-17T13:09:04.148Z,30.51
2018-07-17T13:10:04.132Z,30.44
2018-07-17T13:11:04.122Z,30.70
2018-07-17T13:12:04.112Z,30.66
2018-07-17T13:13:04.104Z,30.42
2018-07-17T13:14:04.093Z,30.34
2018-07-17T13:15:04.085Z,30.61
2018-07-17T13:16:04.077Z,30.75
2018-07-17T13:17:04.066Z,30.56
2018-07-17T13:18:04.060Z,30.11
2018-07-17T13:19:04.056Z,29.89
2018-07-17T13:20:04.042Z,30.07
2018-07-17T13:21:04.033Z,30.19
2018-07-17T13:22:04.019Z,30.30
2018-07-17T13:23:04.013Z,30.45
2018-07-17T13:24:04.004Z,30.51
2018-07-17T13:25:03.990Z,30.19
2018-07-17T13:26:03.984Z,30.45
2018-07-17T13:27:03.977Z,30.46
2018-07-17T13:28:03.964Z,30.78
2018-07-17T13:29:03.964Z,30.42
2018-07-17T13:30:03.949Z,30.60
2018-07-17T13:31:03.935Z,30.60
2018-07-17T13:32:03.923Z,30.97
2018-07-17T13:33:03.924Z,31.20
2018-07-17T13:34:03.908Z,31.22
2018-07-17T13:35:03.898Z,30.38
2018-07-17T13:36:03.888Z,30.19
2018-07-17T13:37:03.877Z,29.88
2018-07-17T13:38:03.868Z,30.01
2018-07-17T13:39:03.884Z,30.25
2018-07-17T13:40:03.847Z,30.08
2018-07-17T13:41:03.839Z,30.01
2018-07-17T13:42:03.831Z,29.97
2018-07-17T13:43:03.823Z,30.00
2018-07-17T13:44:03.813Z,30.28
2018-07-17T13:45:03.801Z,30.28
2018-07-17T13:46:03.790Z,30.29
2018-07-17T13:47:03.782Z,30.42
2018-07-17T13:48:03.774Z,30.38
2018-07-17T13:49:03.761Z,30.16
2018-07-17T13:50:03.766Z,30.29
2018-07-17T13:51:03.738Z,30.53
2018-07-17T13:52:03.726Z,30.86